Time;durP1;ratioP1;P1;durP2;ratioP2;P2;SDS_P1;SDS_P2;PMS_P1;PMS_P2;Temp;Humidity;BMP_temperature;BMP_pressure;BME280_temperature;BME280_humidity;BME280_pressure;Samples;Min_cycle;Max_cycle;Signal;HPM_P1;HPM_P2
2022/09/27 00:01:00;;;;;;;10.80;1.50;;;;;;;;;;6296223;22;20030;-83
2022/09/27 00:03:27;;;;;;;12.60;1.67;;;;;;;;;;6304220;22;20475;-84
2022/09/27 00:06:08;;;;;;;8.40;1.35;;;;;;;;;;6273702;22;20098;-83
2022/09/27 00:08:35;;;;;;;28.77;1.70;;;;;;;;;;6307325;22;20019;-82
2022/09/27 00:11:02;;;;;;;11.10;1.30;;;;;;;;;;6296523;22;20060;-84
2022/09/27 00:13:42;;;;;;;9.98;1.30;;;;;;;;;;6296291;22;20420;-84
2022/09/27 00:16:12;;;;;;;10.73;1.48;;;;;;;;;;6295250;22;20072;-84
2022/09/27 00:18:39;;;;;;;9.48;1.77;;;;;;;;;;6296673;22;20019;-83
2022/09/27 00:21:09;;;;;;;7.47;1.25;;;;;;;;;;6300232;22;20047;-85
2022/09/27 00:23:36;;;;;;;13.30;1.33;;;;;;;;;;6269412;22;20108;-83
2022/09/27 00:26:03;;;;;;;5.22;1.00;;;;;;;;;;6297567;22;20012;-84
2022/09/27 00:28:29;;;;;;;10.55;1.77;;;;;;;;;;6271472;22;20023;-82
2022/09/27 00:30:56;;;;;;;4.07;1.10;;;;;;;;;;6273028;22;20444;-83
2022/09/27 00:33:23;;;;;;;4.38;0.73;;;;;;;;;;6298592;22;20193;-82
2022/09/27 00:35:49;;;;;;;8.75;1.92;;;;;;;;;;6299076;22;20085;-82
2022/09/27 00:38:52;;;;;;;11.65;1.33;;;;;;;;;;6270885;22;20026;-85
2022/09/27 00:41:23;;;;;;;8.43;1.58;;;;;;;;;;6248595;22;20019;-85
2022/09/27 00:43:51;;;;;;;6.53;1.08;;;;;;;;;;6274161;22;20102;-85
2022/09/27 00:46:19;;;;;;;8.18;1.10;;;;;;;;;;6300374;22;20019;-85
2022/09/27 00:48:46;;;;;;;6.80;1.25;;;;;;;;;;6272605;22;20019;-86
2022/09/27 00:51:40;;;;;;;8.70;1.17;;;;;;;;;;6271105;22;20027;-87
2022/09/27 00:54:08;;;;;;;16.33;2.22;;;;;;;;;;6274307;22;20023;-86
2022/09/27 00:56:35;;;;;;;14.02;1.42;;;;;;;;;;6301761;22;20015;-86
2022/09/27 00:59:05;;;;;;;8.48;1.05;;;;;;;;;;6275211;22;20034;-86
2022/09/27 01:01:31;;;;;;;11.10;1.65;;;;;;;;;;6273376;22;20016;-86
2022/09/27 01:04:11;;;;;;;13.80;1.50;;;;;;;;;;6302532;22;20090;-86
2022/09/27 01:06:37;;;;;;;5.82;1.05;;;;;;;;;;6274263;22;20034;-84
2022/09/27 01:09:07;;;;;;;4.63;1.00;;;;;;;;;;6300526;22;20025;-88
2022/09/27 01:11:36;;;;;;;5.70;1.00;;;;;;;;;;6249233;22;20522;-84
2022/09/27 01:14:21;;;;;;;5.13;1.00;;;;;;;;;;6300121;22;20019;-87
2022/09/27 01:16:53;;;;;;;8.40;1.17;;;;;;;;;;6249746;22;20664;-86
2022/09/27 01:19:22;;;;;;;6.53;0.80;;;;;;;;;;6273941;22;20094;-86
2022/09/27 01:21:51;;;;;;;10.10;1.63;;;;;;;;;;6249566;22;20098;-85
2022/09/27 01:24:17;;;;;;;8.90;0.98;;;;;;;;;;6300795;22;20093;-86
2022/09/27 01:27:03;;;;;;;6.80;1.20;;;;;;;;;;6245984;22;20027;-83
2022/09/27 01:29:36;;;;;;;12.63;1.15;;;;;;;;;;6298565;22;20027;-84
2022/09/27 01:32:02;;;;;;;8.02;1.33;;;;;;;;;;6296802;22;20016;-85
2022/09/27 01:34:31;;;;;;;8.25;1.00;;;;;;;;;;6271213;22;20459;-85
2022/09/27 01:37:22;;;;;;;8.30;1.20;;;;;;;;;;6268808;22;20026;-84
2022/09/27 01:39:48;;;;;;;12.23;1.48;;;;;;;;;;6248669;22;20012;-85
2022/09/27 01:42:23;;;;;;;8.55;1.23;;;;;;;;;;6270902;22;20023;-84
2022/09/27 01:44:53;;;;;;;7.38;1.40;;;;;;;;;;6270115;22;20019;-84
2022/09/27 01:47:21;;;;;;;10.35;1.40;;;;;;;;;;6298000;22;20019;-86
2022/09/27 01:49:52;;;;;;;10.07;1.35;;;;;;;;;;6268403;22;20023;-85
2022/09/27 01:52:20;;;;;;;8.00;1.30;;;;;;;;;;6271416;22;20089;-85
2022/09/27 01:54:48;;;;;;;6.85;1.23;;;;;;;;;;6245386;22;20585;-84
2022/09/27 02:00:26;;;;;;;8.38;1.30;;;;;;;;;;6289507;22;20027;-85
2022/09/27 02:02:56;;;;;;;11.32;2.17;;;;;;;;;;6278777;22;20027;-84
2022/09/27 02:05:25;;;;;;;10.50;2.38;;;;;;;;;;6277458;22;20023;-85
2022/09/27 02:08:00;;;;;;;9.70;1.45;;;;;;;;;;6248268;22;20019;-85
2022/09/27 02:10:33;;;;;;;7.97;1.50;;;;;;;;;;6250046;22;20027;-85
2022/09/27 02:13:20;;;;;;;3.45;0.80;;;;;;;;;;6300758;22;20019;-86
2022/09/27 02:15:52;;;;;;;7.15;1.10;;;;;;;;;;6248748;22;20038;-86
2022/09/27 02:18:23;;;;;;;6.75;0.98;;;;;;;;;;6274580;22;20031;-86
2022/09/27 02:20:51;;;;;;;10.45;1.30;;;;;;;;;;6245125;22;20152;-84
2022/09/27 02:23:33;;;;;;;5.20;1.00;;;;;;;;;;6245233;22;20106;-85
2022/09/27 02:26:01;;;;;;;8.68;0.95;;;;;;;;;;6271129;22;20019;-85
2022/09/27 02:28:32;;;;;;;8.93;1.05;;;;;;;;;;6274845;22;20061;-85
2022/09/27 02:31:33;;;;;;;5.53;0.98;;;;;;;;;;6279540;22;20027;-85
2022/09/27 02:34:01;;;;;;;4.90;1.15;;;;;;;;;;6276193;22;20448;-85
2022/09/27 02:36:27;;;;;;;10.07;1.23;;;;;;;;;;6300211;22;20023;-85
2022/09/27 02:38:54;;;;;;;7.00;0.93;;;;;;;;;;6269239;22;20030;-87
2022/09/27 02:41:21;;;;;;;9.68;1.17;;;;;;;;;;6270792;22;20054;-84
2022/09/27 02:43:59;;;;;;;8.05;1.23;;;;;;;;;;6248515;22;20470;-86
2022/09/27 02:46:43;;;;;;;5.95;1.35;;;;;;;;;;6231796;22;20054;-85
2022/09/27 02:49:25;;;;;;;10.85;1.58;;;;;;;;;;6247934;22;20022;-86
2022/09/27 02:51:57;;;;;;;8.50;1.50;;;;;;;;;;6300414;22;20529;-85
2022/09/27 02:54:43;;;;;;;9.27;1.15;;;;;;;;;;6273588;22;20830;-85
2022/09/27 02:57:22;;;;;;;5.57;0.88;;;;;;;;;;6249408;22;20012;-83
2022/09/27 03:02:41;;;;;;;14.75;0.80;;;;;;;;;;6298899;22;20027;-86
2022/09/27 03:05:09;;;;;;;9.50;0.90;;;;;;;;;;6246480;22;20023;-86
2022/09/27 03:07:37;;;;;;;3.85;0.60;;;;;;;;;;6246006;22;20347;-86
2022/09/27 03:10:04;;;;;;;6.00;1.00;;;;;;;;;;6271725;22;20023;-85
2022/09/27 03:12:30;;;;;;;8.48;0.65;;;;;;;;;;6294676;22;20023;-84
2022/09/27 03:14:57;;;;;;;8.27;0.90;;;;;;;;;;6243653;22;20043;-85
2022/09/27 03:17:23;;;;;;;5.18;0.95;;;;;;;;;;6269740;22;20340;-85
2022/09/27 03:19:49;;;;;;;4.78;0.80;;;;;;;;;;6247361;22;20092;-85
2022/09/27 03:22:15;;;;;;;5.82;1.08;;;;;;;;;;6241337;22;20885;-83
2022/09/27 03:24:42;;;;;;;6.20;0.95;;;;;;;;;;6246978;22;20047;-85
2022/09/27 03:27:09;;;;;;;5.80;0.80;;;;;;;;;;6297860;22;20015;-85
2022/09/27 03:29:35;;;;;;;7.50;0.85;;;;;;;;;;6297852;22;20023;-86
2022/09/27 03:32:02;;;;;;;4.10;0.70;;;;;;;;;;6271979;22;20015;-85
2022/09/27 03:34:28;;;;;;;3.00;0.80;;;;;;;;;;6299374;22;20023;-84
2022/09/27 03:36:54;;;;;;;5.55;0.90;;;;;;;;;;6274453;22;20034;-87
2022/09/27 03:39:20;;;;;;;7.93;1.27;;;;;;;;;;6244358;22;20023;-86
2022/09/27 03:41:46;;;;;;;6.85;1.00;;;;;;;;;;6248403;22;20019;-86
2022/09/27 03:44:16;;;;;;;6.20;1.15;;;;;;;;;;6297174;22;20070;-85
2022/09/27 03:46:42;;;;;;;6.78;0.98;;;;;;;;;;6272520;22;20360;-84
2022/09/27 03:49:08;;;;;;;4.00;0.98;;;;;;;;;;6297058;22;20119;-85
2022/09/27 03:51:34;;;;;;;8.48;0.77;;;;;;;;;;6245538;22;20027;-85
2022/09/27 03:54:00;;;;;;;8.48;1.00;;;;;;;;;;6267919;22;20050;-81
2022/09/27 03:59:39;;;;;;;6.82;0.90;;;;;;;;;;6299841;22;20027;-85
2022/09/27 04:02:05;;;;;;;5.53;0.98;;;;;;;;;;6239009;22;20018;-84
2022/09/27 04:04:31;;;;;;;8.10;1.50;;;;;;;;;;6308441;22;20066;-85
2022/09/27 04:06:58;;;;;;;28.02;1.70;;;;;;;;;;6302104;22;20019;-84
2022/09/27 04:12:09;;;;;;;5.22;1.20;;;;;;;;;;6304716;22;20098;-87
2022/09/27 04:14:38;;;;;;;10.15;1.00;;;;;;;;;;6220796;22;20034;-86
2022/09/27 04:17:04;;;;;;;9.43;1.40;;;;;;;;;;6245963;22;20019;-88
2022/09/27 04:19:30;;;;;;;4.78;0.88;;;;;;;;;;6272840;22;20450;-84
2022/09/27 04:21:56;;;;;;;9.20;1.30;;;;;;;;;;6246087;22;20053;-85
2022/09/27 04:24:22;;;;;;;11.25;1.45;;;;;;;;;;6244541;22;20027;-84
2022/09/27 04:26:49;;;;;;;7.80;1.63;;;;;;;;;;6267799;22;20012;-86
2022/09/27 04:29:15;;;;;;;8.93;1.30;;;;;;;;;;6244351;22;20016;-87
2022/09/27 04:31:43;;;;;;;11.05;1.23;;;;;;;;;;6242047;22;20015;-86
2022/09/27 04:34:09;;;;;;;6.95;1.33;;;;;;;;;;6245785;22;20570;-85
2022/09/27 04:36:36;;;;;;;12.88;1.67;;;;;;;;;;6294860;22;20024;-86
2022/09/27 04:39:05;;;;;;;12.07;1.25;;;;;;;;;;6270298;22;20019;-86
2022/09/27 04:41:31;;;;;;;11.35;2.13;;;;;;;;;;6266356;22;20019;-85
2022/09/27 04:44:00;;;;;;;10.65;1.50;;;;;;;;;;6270786;22;20515;-85
2022/09/27 04:46:30;;;;;;;9.63;1.42;;;;;;;;;;6244352;22;20030;-85
2022/09/27 04:52:04;;;;;;;9.63;1.20;;;;;;;;;;6303383;22;20029;-86
2022/09/27 04:54:31;;;;;;;14.15;1.45;;;;;;;;;;6279529;22;20038;-85
2022/09/27 04:56:57;;;;;;;5.18;1.10;;;;;;;;;;6279570;22;20011;-85
2022/09/27 04:59:23;;;;;;;10.75;1.52;;;;;;;;;;6251056;22;20057;-87
2022/09/27 05:01:49;;;;;;;8.48;1.33;;;;;;;;;;6259304;22;20015;-86
2022/09/27 05:04:15;;;;;;;8.65;1.17;;;;;;;;;;6239346;22;20032;-86
2022/09/27 05:06:41;;;;;;;11.73;1.67;;;;;;;;;;6243250;22;20020;-86
2022/09/27 05:09:07;;;;;;;8.68;1.13;;;;;;;;;;6265736;22;20027;-86
2022/09/27 05:11:36;;;;;;;10.88;1.48;;;;;;;;;;6271695;22;20146;-86
2022/09/27 05:14:03;;;;;;;12.93;1.70;;;;;;;;;;6247059;22;20046;-87
2022/09/27 05:16:29;;;;;;;7.68;1.27;;;;;;;;;;6266632;22;20379;-86
2022/09/27 05:19:07;;;;;;;7.18;1.10;;;;;;;;;;6242879;22;20026;-85
2022/09/27 05:21:34;;;;;;;10.18;1.30;;;;;;;;;;6239808;22;20051;-87
2022/09/27 05:24:00;;;;;;;6.75;1.10;;;;;;;;;;6241794;22;20016;-86
2022/09/27 05:29:19;;;;;;;7.40;0.93;;;;;;;;;;6265829;22;20053;-85
2022/09/27 05:34:24;;;;;;;9.38;1.65;;;;;;;;;;6300604;22;20019;-85
2022/09/27 05:36:50;;;;;;;7.10;1.02;;;;;;;;;;6272716;22;20118;-85
2022/09/27 05:39:16;;;;;;;14.73;1.65;;;;;;;;;;6298196;22;20777;-83
2022/09/27 05:41:43;;;;;;;6.22;1.10;;;;;;;;;;6297321;22;20015;-83
2022/09/27 05:44:09;;;;;;;8.35;1.00;;;;;;;;;;6293863;22;20058;-83
2022/09/27 05:46:35;;;;;;;8.23;1.30;;;;;;;;;;6298404;22;20054;-83
2022/09/27 05:49:01;;;;;;;7.28;1.15;;;;;;;;;;6268479;22;20104;-83
2022/09/27 05:51:27;;;;;;;8.57;1.52;;;;;;;;;;6298241;22;20095;-82
2022/09/27 05:53:53;;;;;;;4.22;1.02;;;;;;;;;;6295277;22;20111;-81
2022/09/27 05:56:19;;;;;;;8.63;1.33;;;;;;;;;;6269917;22;20015;-82
2022/09/27 05:58:45;;;;;;;4.90;0.82;;;;;;;;;;6268669;22;20026;-82
2022/09/27 06:01:11;;;;;;;7.38;0.98;;;;;;;;;;6296024;22;20026;-81
2022/09/27 06:03:39;;;;;;;5.40;1.10;;;;;;;;;;6271565;22;20347;-81
2022/09/27 06:06:06;;;;;;;7.30;0.93;;;;;;;;;;6295042;22;20015;-81
2022/09/27 06:08:33;;;;;;;5.25;1.17;;;;;;;;;;6296440;22;20068;-81
2022/09/27 06:11:04;;;;;;;2.33;0.75;;;;;;;;;;6295623;22;20023;-81
2022/09/27 06:13:32;;;;;;;8.23;1.85;;;;;;;;;;6300305;22;20011;-81
2022/09/27 06:15:59;;;;;;;7.63;0.90;;;;;;;;;;6268156;22;20452;-84
2022/09/27 06:18:25;;;;;;;9.13;1.58;;;;;;;;;;6298382;22;20436;-83
2022/09/27 06:20:51;;;;;;;4.65;1.00;;;;;;;;;;6269302;22;20102;-84
2022/09/27 06:23:18;;;;;;;5.32;0.88;;;;;;;;;;6294427;22;20487;-83
2022/09/27 06:25:45;;;;;;;6.78;1.10;;;;;;;;;;6296287;22;20011;-84
2022/09/27 06:28:12;;;;;;;6.05;1.25;;;;;;;;;;6267853;22;20850;-82
2022/09/27 06:30:40;;;;;;;8.07;1.55;;;;;;;;;;6270764;22;20464;-85
2022/09/27 06:33:06;;;;;;;8.90;1.20;;;;;;;;;;6244007;22;20015;-82
2022/09/27 06:35:34;;;;;;;5.32;1.13;;;;;;;;;;6299777;22;20113;-87
2022/09/27 06:38:02;;;;;;;4.30;0.90;;;;;;;;;;6297171;22;20341;-83
2022/09/27 06:40:28;;;;;;;10.80;1.60;;;;;;;;;;6296603;22;20206;-84
2022/09/27 06:42:54;;;;;;;6.95;0.95;;;;;;;;;;6296973;22;20094;-82
2022/09/27 06:45:20;;;;;;;8.18;1.77;;;;;;;;;;6298477;22;20385;-82
2022/09/27 06:47:47;;;;;;;3.63;0.70;;;;;;;;;;6272203;22;20015;-83
2022/09/27 06:50:13;;;;;;;7.00;0.73;;;;;;;;;;6272729;22;20030;-85
2022/09/27 06:52:46;;;;;;;6.70;1.55;;;;;;;;;;6276147;22;20396;-85
2022/09/27 06:55:12;;;;;;;6.75;1.88;;;;;;;;;;6299775;22;20015;-84
2022/09/27 07:00:22;;;;;;;6.88;0.80;;;;;;;;;;6290898;22;20015;-85
2022/09/27 07:02:49;;;;;;;4.90;0.80;;;;;;;;;;6276685;22;20047;-81
2022/09/27 07:05:15;;;;;;;6.05;1.08;;;;;;;;;;6308777;22;20029;-83
2022/09/27 07:07:46;;;;;;;8.50;1.13;;;;;;;;;;6305508;22;20019;-84
2022/09/27 07:10:13;;;;;;;4.65;0.95;;;;;;;;;;6307059;22;20381;-84
2022/09/27 07:12:40;;;;;;;5.13;1.10;;;;;;;;;;6307009;22;20015;-82
2022/09/27 07:15:06;;;;;;;7.32;0.85;;;;;;;;;;6311608;22;20049;-82
2022/09/27 07:17:34;;;;;;;4.43;0.80;;;;;;;;;;6286653;22;20054;-85
2022/09/27 07:20:01;;;;;;;2.55;0.60;;;;;;;;;;6286950;22;20019;-82
2022/09/27 07:22:29;;;;;;;6.68;0.93;;;;;;;;;;6316386;22;20067;-81
2022/09/27 07:24:55;;;;;;;4.55;1.02;;;;;;;;;;6299517;22;20023;-82
2022/09/27 07:27:23;;;;;;;2.08;0.68;;;;;;;;;;6303175;22;20336;-82
2022/09/27 07:30:06;;;;;;;3.83;0.50;;;;;;;;;;6301345;22;20022;-83
2022/09/27 07:32:34;;;;;;;10.80;0.80;;;;;;;;;;6303860;22;20015;-83
2022/09/27 07:35:00;;;;;;;11.57;0.73;;;;;;;;;;6277661;22;20086;-81
2022/09/27 07:37:26;;;;;;;3.47;1.00;;;;;;;;;;6308385;22;20351;-83
2022/09/27 07:39:53;;;;;;;8.38;0.88;;;;;;;;;;6275325;22;20023;-82
2022/09/27 07:42:19;;;;;;;6.85;1.00;;;;;;;;;;6281508;22;20046;-83
2022/09/27 07:44:45;;;;;;;6.10;1.00;;;;;;;;;;6302568;22;20015;-83
2022/09/27 07:47:11;;;;;;;6.05;0.93;;;;;;;;;;6275225;22;20333;-83
2022/09/27 07:49:37;;;;;;;8.07;1.17;;;;;;;;;;6226575;22;20110;-83
2022/09/27 07:52:03;;;;;;;7.78;0.98;;;;;;;;;;6277347;22;20324;-84
2022/09/27 07:54:30;;;;;;;8.13;1.20;;;;;;;;;;6306315;22;20017;-83
2022/09/27 07:56:56;;;;;;;4.43;0.80;;;;;;;;;;6304817;22;20442;-82
2022/09/27 07:59:22;;;;;;;9.85;1.58;;;;;;;;;;6254295;22;20034;-83
2022/09/27 08:01:48;;;;;;;5.80;0.70;;;;;;;;;;6304210;22;20019;-84
2022/09/27 08:04:14;;;;;;;2.28;0.57;;;;;;;;;;6277819;22;20048;-83
2022/09/27 08:06:46;;;;;;;5.85;0.90;;;;;;;;;;6302996;22;20015;-82
2022/09/27 08:09:12;;;;;;;3.90;0.60;;;;;;;;;;6303309;22;20451;-82
2022/09/27 08:11:38;;;;;;;6.10;1.00;;;;;;;;;;6275157;22;20035;-84
2022/09/27 08:14:04;;;;;;;7.47;1.13;;;;;;;;;;6301509;22;20348;-81
2022/09/27 08:16:33;;;;;;;9.07;1.25;;;;;;;;;;6274761;22;20023;-82
2022/09/27 08:18:59;;;;;;;3.47;1.15;;;;;;;;;;6272732;22;20088;-82
2022/09/27 08:21:25;;;;;;;2.28;0.85;;;;;;;;;;6302225;22;20018;-83
2022/09/27 08:23:51;;;;;;;7.38;1.13;;;;;;;;;;6246156;22;20062;-82
2022/09/27 08:26:17;;;;;;;3.50;0.90;;;;;;;;;;6301273;22;20015;-84
2022/09/27 08:28:43;;;;;;;9.95;1.75;;;;;;;;;;6272024;22;20026;-81
2022/09/27 08:31:09;;;;;;;5.43;1.15;;;;;;;;;;6273724;22;20019;-83
2022/09/27 08:33:35;;;;;;;6.68;1.27;;;;;;;;;;6273707;22;20450;-81
2022/09/27 08:36:10;;;;;;;8.70;1.70;;;;;;;;;;6301166;22;20030;-81
2022/09/27 08:38:36;;;;;;;8.13;1.58;;;;;;;;;;6247569;22;20092;-81
2022/09/27 08:41:07;;;;;;;6.72;1.35;;;;;;;;;;6244952;22;20385;-83
2022/09/27 08:43:57;;;;;;;4.65;1.48;;;;;;;;;;6301234;22;20088;-81
2022/09/27 08:46:41;;;;;;;5.85;1.45;;;;;;;;;;6239936;22;20023;-83
2022/09/27 08:49:13;;;;;;;3.75;1.02;;;;;;;;;;6300284;22;20019;-81
2022/09/27 08:51:40;;;;;;;6.68;1.38;;;;;;;;;;6300737;22;20019;-81
2022/09/27 08:54:10;;;;;;;7.85;1.50;;;;;;;;;;6299409;22;20419;-82
2022/09/27 08:56:36;;;;;;;3.47;0.80;;;;;;;;;;6301462;22;20094;-81
2022/09/27 08:59:13;;;;;;;15.98;1.48;;;;;;;;;;6245048;22;20050;-82
2022/09/27 09:01:40;;;;;;;6.57;1.20;;;;;;;;;;6272816;22;20023;-82
2022/09/27 09:04:07;;;;;;;3.30;0.82;;;;;;;;;;6298628;22;20080;-81
2022/09/27 09:06:33;;;;;;;8.30;1.02;;;;;;;;;;6303308;22;20057;-82
2022/09/27 09:09:03;;;;;;;6.03;0.95;;;;;;;;;;6273341;22;20102;-81
2022/09/27 09:14:42;;;;;;;2.95;0.63;;;;;;;;;;6300524;22;20532;-81
2022/09/27 09:17:18;;;;;;;10.77;1.55;;;;;;;;;;6298386;22;20030;-83
2022/09/27 09:19:44;;;;;;;4.55;0.68;;;;;;;;;;6298704;22;20019;-82
2022/09/27 09:22:16;;;;;;;6.30;0.77;;;;;;;;;;6268636;22;20704;-83
2022/09/27 09:24:42;;;;;;;3.97;0.68;;;;;;;;;;6243928;22;20102;-82
2022/09/27 09:27:56;;;;;;;1.65;0.60;;;;;;;;;;6244414;22;20019;-83
2022/09/27 09:33:29;;;;;;;5.63;0.70;;;;;;;;;;6143974;23;20029;-82
2022/09/27 09:36:00;;;;;;;3.92;0.70;;;;;;;;;;6218191;23;20670;-83
2022/09/27 09:38:26;;;;;;;6.13;1.08;;;;;;;;;;6233056;22;20011;-82
2022/09/27 09:40:57;;;;;;;7.00;1.08;;;;;;;;;;6276836;22;20439;-83
2022/09/27 09:43:30;;;;;;;4.28;0.80;;;;;;;;;;6253668;22;20740;-82
2022/09/27 09:46:01;;;;;;;4.93;0.77;;;;;;;;;;6273653;22;20023;-83
2022/09/27 09:48:33;;;;;;;5.70;1.02;;;;;;;;;;6265492;22;20061;-82
2022/09/27 09:51:01;;;;;;;8.82;0.85;;;;;;;;;;6267130;22;20026;-82
2022/09/27 09:53:41;;;;;;;6.63;1.08;;;;;;;;;;6237792;22;20038;-82
2022/09/27 09:56:09;;;;;;;7.18;0.90;;;;;;;;;;6214623;22;20123;-83
2022/09/27 09:58:41;;;;;;;5.45;0.73;;;;;;;;;;6269309;22;20161;-81
2022/09/27 10:04:21;;;;;;;6.20;0.63;;;;;;;;;;6268823;22;20023;-83
2022/09/27 10:06:48;;;;;;;2.15;0.50;;;;;;;;;;6267562;22;20020;-82
2022/09/27 10:09:16;;;;;;;4.85;0.95;;;;;;;;;;6239237;22;20030;-82
2022/09/27 10:11:55;;;;;;;3.97;0.93;;;;;;;;;;6241120;22;20105;-83
2022/09/27 10:14:23;;;;;;;4.93;0.70;;;;;;;;;;6213178;22;20059;-83
2022/09/27 10:16:53;;;;;;;7.05;1.27;;;;;;;;;;6271470;22;20047;-81
2022/09/27 10:19:26;;;;;;;6.22;0.77;;;;;;;;;;6269654;22;20019;-82
2022/09/27 10:21:52;;;;;;;6.72;1.30;;;;;;;;;;6270902;22;20024;-83
2022/09/27 10:24:18;;;;;;;8.32;0.80;;;;;;;;;;6269034;22;20027;-80
2022/09/27 10:26:47;;;;;;;6.00;0.80;;;;;;;;;;6269732;22;20996;-80
2022/09/27 10:29:22;;;;;;;6.47;0.95;;;;;;;;;;6243491;22;20043;-81
2022/09/27 10:31:49;;;;;;;5.65;0.80;;;;;;;;;;6242801;22;20027;-83
2022/09/27 10:34:18;;;;;;;5.35;0.90;;;;;;;;;;6219504;22;20020;-83
2022/09/27 10:36:44;;;;;;;7.00;1.02;;;;;;;;;;6241845;22;20019;-82
2022/09/27 10:39:20;;;;;;;8.60;0.60;;;;;;;;;;6270570;22;20026;-83
2022/09/27 10:41:46;;;;;;;4.18;0.55;;;;;;;;;;6241212;22;20016;-83
2022/09/27 10:44:18;;;;;;;4.43;0.70;;;;;;;;;;6218175;22;20034;-82
2022/09/27 10:46:46;;;;;;;2.55;0.73;;;;;;;;;;6271136;22;20026;-84
2022/09/27 10:49:32;;;;;;;3.40;0.70;;;;;;;;;;6272260;22;20034;-84
2022/09/27 10:52:02;;;;;;;1.85;0.57;;;;;;;;;;6278292;22;20031;-83
2022/09/27 10:54:29;;;;;;;3.42;0.68;;;;;;;;;;6246926;22;20062;-83
2022/09/27 10:57:14;;;;;;;2.05;0.50;;;;;;;;;;6249721;22;20017;-84
2022/09/27 10:59:44;;;;;;;3.20;0.57;;;;;;;;;;6274242;22;20177;-84
2022/09/27 11:02:26;;;;;;;1.83;0.60;;;;;;;;;;6301873;22;20019;-84
2022/09/27 11:05:29;;;;;;;5.20;0.60;;;11.70;99.90;;;;;;6271107;22;20023;-84
2022/09/27 11:11:15;;;;;;;1.35;0.50;;;;;;;;;;6273159;22;20031;-84
2022/09/27 11:14:06;;;;;;;0.93;0.35;;;;;;;;;;6299720;22;20112;-84
2022/09/27 11:16:53;;;;;;;3.25;0.55;;;;;;;;;;6240604;22;20015;-84
2022/09/27 11:19:23;;;;;;;1.27;0.45;;;;;;;;;;6297838;22;20415;-84
2022/09/27 11:21:52;;;;;;;4.45;0.60;;;;;;;;;;6300014;22;20023;-84
2022/09/27 11:24:28;;;;;;;2.88;0.43;;;;;;;;;;6273258;22;20065;-84
2022/09/27 11:26:54;;;;;;;1.90;0.45;;;;;;;;;;6301861;22;20030;-83
2022/09/27 11:32:30;;;;;;;2.58;0.40;;;;;;;;;;6329310;22;20030;-83
2022/09/27 11:35:15;;;;;;;5.97;0.63;;;;;;;;;;6329630;22;20030;-82
2022/09/27 11:37:44;;;;;;;3.80;0.60;;;;;;;;;;6306211;22;20082;-83
2022/09/27 11:40:29;;;;;;;3.80;0.57;;;;;;;;;;6308538;22;20015;-83
2022/09/27 11:43:15;;;;;;;4.75;0.70;;;;;;;;;;6334477;22;20019;-83
2022/09/27 11:45:59;;;;;;;3.13;0.75;;;;;;;;;;6332941;22;20091;-84
2022/09/27 11:48:25;;;;;;;3.95;0.57;;;;;;;;;;6304345;22;20019;-84
2022/09/27 11:51:17;;;;;;;2.40;0.95;;;;;;;;;;6280438;22;20074;-84
2022/09/27 11:53:43;;;;;;;2.13;0.40;;;;;;;;;;6335857;22;20455;-82
2022/09/27 11:56:24;;;;;;;3.78;0.63;;;;;;;;;;6335859;22;20010;-82
2022/09/27 11:58:56;;;;;;;12.07;0.65;;;;;;;;;;6308021;22;20023;-82
2022/09/27 12:01:31;;;;;;;5.38;0.73;;;;;;;;;;6333755;22;20086;-82
2022/09/27 12:04:07;;;;;;;5.15;0.68;;;;;;;;;;6335822;22;20019;-82
2022/09/27 12:06:46;;;;;;;4.45;0.93;;;;;;;;;;6307578;22;20014;-82
2022/09/27 12:09:18;;;;;;;2.03;0.40;;;;;;;;;;6290989;22;20019;-81
2022/09/27 12:11:48;;;;;;;1.13;0.22;;;;;;;;;;6332354;22;20530;-82
2022/09/27 12:14:17;;;;;;;1.08;0.40;;;;;;;;;;6329322;22;20072;-81
2022/09/27 12:16:43;;;;;;;3.28;0.40;;;;;;;;;;6329745;22;20072;-81
2022/09/27 12:19:15;;;;;;;3.47;0.50;;;;;;;;;;6328817;22;20151;-82
2022/09/27 12:21:41;;;;;;;0.68;0.40;;;;;;;;;;6302079;22;20014;-82
2022/09/27 12:24:14;;;;;;;1.15;0.60;;;;;;;;;;6327441;22;20053;-83
2022/09/27 12:26:43;;;;;;;3.15;0.50;;;;;;;;;;6327810;22;20055;-83
2022/09/27 12:29:27;;;;;;;1.77;0.40;;;;;;;;;;6299507;22;20014;-83
2022/09/27 12:32:11;;;;;;;6.20;0.87;;;;;;;;;;6329108;22;20037;-83
2022/09/27 12:34:47;;;;;;;2.88;0.50;;;;;;;;;;6330128;22;20233;-82
2022/09/27 12:37:27;;;;;;;5.30;0.90;;;;;;;;;;6328162;22;20018;-83
2022/09/27 12:39:59;;;;;;;10.15;1.42;;;;;;;;;;6329952;22;20018;-81
2022/09/27 12:42:29;;;;;;;6.68;1.02;;;;;;;;;;6330580;22;20022;-83
2022/09/27 12:44:55;;;;;;;4.28;0.70;;;;;;;;;;6328209;22;20046;-82
2022/09/27 12:47:34;;;;;;;7.05;0.90;;;;;;;;;;6300690;22;20023;-82
2022/09/27 12:50:00;;;;;;;6.47;0.95;;;;;;;;;;6299692;22;20626;-83
2022/09/27 12:52:29;;;;;;;3.97;1.17;;;;;;;;;;6333550;22;20205;-83
2022/09/27 12:55:15;;;;;;;6.10;0.90;;;;;;;;;;6327336;22;20120;-83
2022/09/27 12:57:41;;;;;;;6.45;0.73;;;;;;;;;;6331405;22;20014;-82
2022/09/27 13:00:24;;;;;;;6.45;0.90;;;;;;;;;;6279165;22;20030;-83
2022/09/27 13:03:15;;;;;;;4.72;0.73;;;;;;;;;;6335694;22;20332;-83
2022/09/27 13:05:59;;;;;;;8.30;1.00;;;;;;;;;;6340706;22;20056;-85
2022/09/27 13:08:44;;;;;;;5.55;0.60;;;;;;;;;;6301996;22;20069;-82
2022/09/27 13:11:13;;;;;;;5.35;0.68;;;;;;;;;;6332986;22;20029;-83
2022/09/27 13:13:39;;;;;;;4.68;0.80;;;;;;;;;;6331461;22;20521;-83
2022/09/27 13:16:06;;;;;;;6.45;0.57;;;;;;;;;;6336481;22;20106;-82
2022/09/27 13:18:35;;;;;;;1.63;0.70;;;;;;;;;;6333448;22;20029;-83
2022/09/27 13:21:05;;;;;;;2.90;0.63;;;;;;;;;;6303392;22;20040;-83
2022/09/27 13:23:31;;;;;;;12.35;0.63;;;;;;;;;;6279122;22;20436;-84
2022/09/27 13:28:45;;;;;;;8.00;0.73;;;;;;;;;;6333738;22;20102;-85
2022/09/27 13:31:13;;;;;;;3.28;0.50;;;;;;;;;;6303698;22;20026;-84
2022/09/27 13:34:02;;;;;;;5.65;0.93;;;;;;;;;;6306603;22;20019;-82
2022/09/27 13:36:32;;;;;;;3.90;0.50;;;;;;;;;;6328567;22;20010;-82
2022/09/27 13:39:03;;;;;;;3.97;0.50;;;;;;;;;;6302539;22;20014;-82
2022/09/27 13:41:39;;;;;;;6.68;0.90;;;;;;;;;;6304679;22;20042;-82
2022/09/27 13:44:23;;;;;;;2.92;0.57;;;;;;;;;;6301749;22;20023;-84
2022/09/27 13:46:52;;;;;;;3.08;0.70;;;;;;;;;;6302805;22;20027;-83
2022/09/27 13:49:28;;;;;;;5.07;0.63;;;;;;;;;;6303482;22;20019;-83
2022/09/27 13:51:56;;;;;;;4.00;1.05;;;;;;;;;;6331000;22;20069;-85
2022/09/27 13:54:52;;;;;;;2.85;0.98;;;;;;;;;;6304119;22;20018;-83
2022/09/27 13:57:43;;;;;;;19.17;1.02;;;;;;;;;;6243494;22;20023;-85
2022/09/27 14:00:11;;;;;;;1.63;0.40;;;;;;;;;;6302999;22;20019;-85
2022/09/27 14:02:41;;;;;;;10.00;0.80;;;;;;;;;;6330922;22;20073;-85
2022/09/27 14:05:11;;;;;;;7.32;1.00;;;;;;;;;;6330915;22;20058;-83
2022/09/27 14:07:40;;;;;;;3.35;0.75;;;;;;;;;;6331418;22;20015;-84
2022/09/27 14:10:12;;;;;;;2.03;0.65;;;;;;;;;;6275958;22;20095;-84
2022/09/27 14:12:39;;;;;;;9.27;1.08;;;;;;;;;;6331350;22;20023;-85
2022/09/27 14:15:07;;;;;;;4.63;0.65;;;;;;;;;;6303068;22;20320;-84
2022/09/27 14:17:33;;;;;;;5.55;0.70;;;;;;;;;;6278289;22;20011;-85
2022/09/27 14:20:00;;;;;;;1.55;0.50;;;;;;;;;;6277445;22;20034;-85
2022/09/27 14:22:26;;;;;;;4.78;0.68;;;;;;;;;;6280211;22;20019;-85
2022/09/27 14:24:53;;;;;;;4.70;0.50;;;;;;;;;;6277513;22;20076;-85
2022/09/27 14:27:20;;;;;;;2.78;0.70;;;;;;;;;;6300449;22;20033;-85
2022/09/27 14:30:08;;;;;;;4.22;0.70;;;;;;;;;;6299545;22;20030;-84
2022/09/27 14:32:46;;;;;;;6.38;0.80;;;;;;;;;;6275824;22;20022;-87
2022/09/27 14:38:19;;;;;;;3.85;0.77;;;;;;;;;;6304662;22;20049;-86
2022/09/27 14:43:49;;;;;;;;;;;;;;;;;;6292964;22;20019;-85
2022/09/27 14:46:29;;;;;;;5.65;0.50;;;;;;;;;;6272099;22;19966;-85
2022/09/27 14:48:56;;;;;;;8.65;1.00;;;;;;;;;;6326669;22;20296;-84
2022/09/27 14:51:30;;;;;;;8.35;0.98;;;;;;;;;;6274273;22;20015;-85
2022/09/27 14:53:59;;;;;;;4.55;0.57;;;;;;;;;;6275576;22;20019;-83
2022/09/27 14:56:31;;;;;;;14.50;1.45;;;;;;;;;;6328953;22;20093;-84
2022/09/27 15:02:14;;;;;;;10.93;2.33;;;;;;;;;;6302837;22;20019;-85
2022/09/27 15:04:45;;;;;;;8.13;1.17;;;;;;;;;;6302157;22;20019;-85
2022/09/27 15:07:30;;;;;;;5.47;1.00;;;;;;;;;;6300192;22;20097;-84
2022/09/27 15:09:57;;;;;;;6.97;0.82;;;;;;;;;;6329430;22;20346;-85
2022/09/27 15:12:25;;;;;;;4.93;1.00;;;;;;;;;;6303184;22;20672;-84
2022/09/27 15:14:52;;;;;;;5.38;0.55;;;;;;;;;;6331529;22;20932;-84
2022/09/27 15:17:20;;;;;;;1.20;0.50;;;;;;;;;;6329247;22;20585;-84
2022/09/27 15:20:00;;;;;;;1.38;0.50;;;;;;;;;;6304046;22;20456;-86
2022/09/27 15:22:32;;;;;;;2.00;0.68;;;;;;;;;;6331100;22;20033;-86
2022/09/27 15:25:31;;;;;;;2.63;1.65;;;;;;;;;;6276889;22;20026;-84
2022/09/27 15:27:58;;;;;;;1.52;0.68;;;;;;;;;;6173838;23;20025;-87
2022/09/27 15:30:26;;;;;;;2.35;0.70;;;;;;;;;;6278506;22;20030;-85
2022/09/27 15:33:14;;;;;;;1.02;0.77;;;;;;;;;;6276587;22;20955;-86
2022/09/27 15:35:48;;;;;;;0.73;0.47;;;;;;;;;;6304230;22;20015;-83
2022/09/27 15:38:19;;;;;;;;;;;;;;;;;;6331933;22;20011;-86
2022/09/27 15:40:49;;;;;;;2.00;0.55;;;;;;;;;;6277698;22;19964;-84
2022/09/27 15:43:29;;;;;;;3.05;1.20;;;;;;;;;;6281773;22;20037;-84
2022/09/27 15:45:59;;;;;;;3.53;1.20;;;;;;;;;;6310627;22;20470;-82
2022/09/27 15:48:26;;;;;;;2.53;1.70;;;;;;;;;;6307877;22;20015;-84
2022/09/27 15:50:52;;;;;;;3.53;1.45;;;;;;;;;;6285652;22;20022;-83
2022/09/27 15:53:36;;;;;;;3.40;1.10;;;;;;;;;;6279748;22;20022;-84